createdAt,value
2023-03-20T00:01:39.842Z,102038.56
2023-03-20T00:04:06.432Z,102038.56
2023-03-20T00:06:33.032Z,102030.66
2023-03-20T00:08:59.605Z,102037.72
2023-03-20T00:11:41.290Z,102028.81
2023-03-20T00:14:14.515Z,102020.88
2023-03-20T00:16:43.839Z,102015.50
2023-03-20T00:19:17.528Z,102009.28
2023-03-20T00:21:46.528Z,102006.72
2023-03-20T00:24:13.718Z,102016.38
2023-03-20T00:26:40.740Z,102021.84
2023-03-20T00:29:11.844Z,102020.16
2023-03-20T00:31:39.829Z,102016.72
2023-03-20T00:34:12.996Z,102025.75
2023-03-20T00:36:39.741Z,102037.50
2023-03-20T00:39:06.802Z,102033.97
2023-03-20T00:41:39.063Z,102039.44
2023-03-20T00:44:27.962Z,102045.91
2023-03-20T00:47:11.380Z,102050.16
2023-03-20T00:49:38.364Z,102064.56
2023-03-20T00:52:05.686Z,102067.41
2023-03-20T00:54:32.541Z,102064.81
2023-03-20T00:57:07.826Z,102056.91
2023-03-20T00:59:38.277Z,102056.06
2023-03-20T01:02:05.169Z,102050.78
2023-03-20T01:04:37.893Z,102044.72
2023-03-20T01:07:05.560Z,102043.88
2023-03-20T01:09:32.133Z,102059.97
2023-03-20T01:12:03.113Z,102047.63
2023-03-20T01:14:30.057Z,102047.63
2023-03-20T01:16:56.630Z,102051.31
2023-03-20T01:19:23.181Z,102057.66
2023-03-20T01:21:50.245Z,102049.63
2023-03-20T01:24:16.746Z,102058.63
2023-03-20T01:26:44.962Z,102053.25
2023-03-20T01:29:23.499Z,102051.69
2023-03-20T01:31:51.878Z,102057.06
2023-03-20T01:34:19.706Z,102045.47
2023-03-20T01:36:51.572Z,102036.69
2023-03-20T01:39:19.272Z,102045.56
2023-03-20T01:41:47.130Z,102042.19
2023-03-20T01:44:19.926Z,102058.28
2023-03-20T01:46:46.784Z,102060.22
2023-03-20T01:49:19.167Z,102075.59
2023-03-20T01:51:46.714Z,102063.88
2023-03-20T01:54:16.628Z,102057.81
2023-03-20T01:56:50.999Z,102079.28
2023-03-20T01:59:24.628Z,102066.81
2023-03-20T02:01:51.244Z,102071.31
2023-03-20T02:04:21.311Z,102075.84
2023-03-20T02:06:48.061Z,102058.03
2023-03-20T02:09:14.687Z,102050.00
2023-03-20T02:11:43.587Z,102048.31
2023-03-20T02:14:11.198Z,102039.38
2023-03-20T02:16:37.751Z,102034.88
2023-03-20T02:19:07.730Z,102032.22
2023-03-20T02:21:58.622Z,102033.41
2023-03-20T02:24:46.115Z,102036.97
2023-03-20T02:27:38.862Z,102029.88
2023-03-20T02:30:24.392Z,102027.31
2023-03-20T02:33:09.668Z,102017.56
2023-03-20T02:35:54.325Z,102019.50
2023-03-20T02:38:33.193Z,102015.00
2023-03-20T02:41:30.635Z,102026.84
2023-03-20T02:44:12.957Z,102008.06
2023-03-20T02:46:51.314Z,101993.81
2023-03-20T02:49:42.562Z,101994.66
2023-03-20T02:52:24.292Z,101969.78
2023-03-20T02:55:08.625Z,101961.88
2023-03-20T02:57:41.174Z,101968.22
2023-03-20T03:00:21.309Z,101983.44
2023-03-20T03:02:58.430Z,101986.25
2023-03-20T03:05:32.318Z,101978.34
2023-03-20T03:08:02.768Z,101973.94
2023-03-20T03:10:36.905Z,101991.84
2023-03-20T03:13:07.780Z,101994.69
2023-03-20T03:15:45.316Z,101990.25
2023-03-20T03:18:17.480Z,101985.75
2023-03-20T03:20:45.798Z,101976.97
2023-03-20T03:23:26.790Z,101986.00
2023-03-20T03:25:55.791Z,101986.00
2023-03-20T03:28:29.912Z,101988.81
2023-03-20T03:30:58.954Z,101983.44
2023-03-20T03:33:29.667Z,101977.34
2023-03-20T03:36:08.736Z,101974.78
2023-03-20T03:38:45.988Z,101966.75
2023-03-20T03:41:18.463Z,101957.84
2023-03-20T03:44:05.356Z,101956.25
2023-03-20T03:46:53.146Z,101949.91
2023-03-20T03:49:26.417Z,101949.06
2023-03-20T03:51:58.482Z,101942.00
2023-03-20T03:54:31.305Z,101934.94
2023-03-20T03:57:01.283Z,101935.66
2023-03-20T03:59:37.830Z,101926.03
2023-03-20T04:02:08.491Z,101942.13
2023-03-20T04:04:40.397Z,101938.59
2023-03-20T04:07:06.923Z,101928.84
2023-03-20T04:09:33.673Z,101927.16
2023-03-20T04:12:00.356Z,101927.16
2023-03-20T04:14:27.266Z,101928.13
2023-03-20T04:16:53.758Z,101927.25
2023-03-20T04:19:20.293Z,101928.13
2023-03-20T04:21:47.040Z,101930.06
2023-03-20T04:24:13.623Z,101937.25
2023-03-20T04:26:40.491Z,101941.78
2023-03-20T04:29:07.043Z,101948.00
2023-03-20T04:31:33.658Z,101951.66
2023-03-20T04:34:00.266Z,101942.75
2023-03-20T04:36:26.792Z,101943.72
2023-03-20T04:38:55.213Z,101942.00
2023-03-20T04:41:23.592Z,101934.97
2023-03-20T04:43:50.212Z,101934.97
2023-03-20T04:46:16.856Z,101934.09
2023-03-20T04:48:43.464Z,101927.91
2023-03-20T04:51:10.400Z,101926.16
2023-03-20T04:53:37.151Z,101928.84
2023-03-20T04:56:03.751Z,101919.25
2023-03-20T04:58:30.282Z,101914.84
2023-03-20T05:00:56.878Z,101921.09
2023-03-20T05:03:24.209Z,101920.19
2023-03-20T05:05:51.014Z,101924.84
2023-03-20T05:08:17.597Z,101911.59
2023-03-20T05:10:44.222Z,101916.94
2023-03-20T05:13:10.977Z,101914.50
2023-03-20T05:15:37.865Z,101915.50
2023-03-20T05:18:04.531Z,101913.75
2023-03-20T05:20:31.162Z,101913.91
2023-03-20T05:22:57.641Z,101914.75
2023-03-20T05:25:24.143Z,101915.72
2023-03-20T05:27:50.665Z,101912.19
2023-03-20T05:30:17.556Z,101916.72
2023-03-20T05:32:44.212Z,101919.50
2023-03-20T05:35:11.377Z,101923.16
2023-03-20T05:37:39.485Z,101925.94
2023-03-20T05:40:07.280Z,101927.91
2023-03-20T05:42:33.882Z,101939.47
2023-03-20T05:45:00.573Z,101937.78
2023-03-20T05:47:27.203Z,101938.63
2023-03-20T05:49:53.804Z,101939.59
2023-03-20T05:52:20.398Z,101938.75
2023-03-20T05:54:47.432Z,101928.97
2023-03-20T05:57:14.026Z,101928.97
2023-03-20T05:59:40.799Z,101939.84
2023-03-20T06:02:07.467Z,101939.00
2023-03-20T06:04:35.003Z,101942.53
2023-03-20T06:07:01.604Z,101935.47
2023-03-20T06:09:28.185Z,101933.72
2023-03-20T06:11:54.707Z,101942.75
2023-03-20T06:14:21.262Z,101941.91
2023-03-20T06:16:47.977Z,101943.72
2023-03-20T06:19:14.557Z,101947.25
2023-03-20T06:21:41.113Z,101953.47
2023-03-20T06:24:07.802Z,101949.94
2023-03-20T06:26:34.315Z,101945.56
2023-03-20T06:29:01.598Z,101953.59
2023-03-20T06:31:28.214Z,101961.75
2023-03-20T06:33:54.790Z,101961.75
2023-03-20T06:36:21.306Z,101961.88
2023-03-20T06:38:47.862Z,101955.66
2023-03-20T06:41:27.781Z,101957.50
2023-03-20T06:44:00.457Z,101962.72
2023-03-20T06:46:26.970Z,101961.88
2023-03-20T06:48:53.524Z,101959.31
2023-03-20T06:51:20.098Z,101962.84
2023-03-20T06:53:46.675Z,101962.00
2023-03-20T06:56:13.500Z,101963.84
2023-03-20T06:58:40.075Z,101961.16
2023-03-20T07:01:11.306Z,101954.91
2023-03-20T07:03:37.851Z,101965.63
2023-03-20T07:06:04.914Z,101971.97
2023-03-20T07:08:32.570Z,101967.47
2023-03-20T07:11:01.283Z,101973.81
2023-03-20T07:13:28.340Z,101978.31
2023-03-20T07:16:04.046Z,101973.94
2023-03-20T07:18:31.584Z,101966.00
2023-03-20T07:21:02.370Z,101972.19
2023-03-20T07:23:30.756Z,101980.25
2023-03-20T07:25:58.247Z,101971.34
2023-03-20T07:28:24.928Z,101971.34
2023-03-20T07:30:51.917Z,101976.72
2023-03-20T07:33:18.606Z,101967.81
2023-03-20T07:35:45.350Z,101969.53
2023-03-20T07:38:11.903Z,101972.19
2023-03-20T07:40:38.431Z,101980.38
2023-03-20T07:43:04.987Z,101976.84
2023-03-20T07:45:32.760Z,101975.88
2023-03-20T07:47:59.413Z,101975.88
2023-03-20T07:50:25.924Z,101978.53
2023-03-20T07:52:52.427Z,101979.38
2023-03-20T07:55:18.933Z,101975.88
2023-03-20T07:57:45.572Z,101976.72
2023-03-20T08:00:12.740Z,101973.94
2023-03-20T08:02:39.258Z,101982.81
2023-03-20T08:05:06.309Z,101978.31
2023-03-20T08:07:33.122Z,101980.84
2023-03-20T08:10:00.105Z,101979.91
2023-03-20T08:12:27.013Z,101973.66
2023-03-20T08:14:53.604Z,101982.47
2023-03-20T08:17:21.897Z,101983.31
2023-03-20T08:19:48.522Z,101982.47
2023-03-20T08:22:15.139Z,101985.13
2023-03-20T08:24:41.725Z,101980.75
2023-03-20T08:27:08.471Z,101981.59
2023-03-20T08:29:35.759Z,101992.31
2023-03-20T08:32:02.277Z,101988.78
2023-03-20T08:34:28.826Z,101986.13
2023-03-20T08:36:55.671Z,101989.66
2023-03-20T08:39:22.314Z,101979.78
2023-03-20T08:41:49.690Z,101987.81
2023-03-20T08:44:16.492Z,101987.81
2023-03-20T08:46:44.782Z,101990.38
2023-03-20T08:49:11.317Z,101979.66
2023-03-20T08:51:37.804Z,101991.22
2023-03-20T08:54:06.058Z,101982.22
2023-03-20T08:56:32.614Z,101983.91
2023-03-20T08:58:59.186Z,101993.66
2023-03-20T09:01:35.313Z,101986.59
2023-03-20T09:04:08.836Z,101984.78
2023-03-20T09:06:39.904Z,101989.28
2023-03-20T09:09:06.744Z,101990.97
2023-03-20T09:11:33.787Z,101986.47
2023-03-20T09:14:00.691Z,101989.16
2023-03-20T09:16:28.236Z,101989.16
2023-03-20T09:18:55.152Z,101991.81
2023-03-20T09:21:21.692Z,101989.16
2023-03-20T09:23:48.206Z,101979.28
2023-03-20T09:26:14.724Z,101988.19
2023-03-20T09:28:41.253Z,101974.81
2023-03-20T09:31:07.834Z,101978.34
2023-03-20T09:33:34.431Z,101979.19
2023-03-20T09:36:01.248Z,101981.00
2023-03-20T09:38:27.822Z,101975.53
2023-03-20T09:40:57.578Z,101976.38
2023-03-20T09:43:33.083Z,101973.69
2023-03-20T09:46:25.860Z,101971.00
2023-03-20T09:49:26.496Z,101970.78
2023-03-20T09:51:59.120Z,101973.44
2023-03-20T09:54:53.535Z,101983.19
2023-03-20T09:57:39.395Z,101976.00
2023-03-20T10:00:28.354Z,101971.50
2023-03-20T10:03:03.402Z,101980.28
2023-03-20T10:05:32.470Z,101980.28
2023-03-20T10:08:03.044Z,101983.69
2023-03-20T10:10:46.642Z,101978.34
2023-03-20T10:13:37.157Z,101981.13
2023-03-20T10:16:09.552Z,101973.94
2023-03-20T10:18:40.712Z,101973.69
2023-03-20T10:21:18.596Z,101976.50
2023-03-20T10:24:03.777Z,101972.00
2023-03-20T10:26:35.083Z,101966.50
2023-03-20T10:29:18.910Z,101969.09
2023-03-20T10:32:08.817Z,101971.75
2023-03-20T10:34:41.811Z,101974.31
2023-03-20T10:37:17.178Z,101965.28
2023-03-20T10:40:05.985Z,101961.75
2023-03-20T10:42:40.902Z,101965.28
2023-03-20T10:45:25.788Z,101973.31
2023-03-20T10:47:52.723Z,101957.25
2023-03-20T10:50:23.886Z,101959.09
2023-03-20T10:52:53.837Z,101967.13
2023-03-20T10:55:34.941Z,101960.78
2023-03-20T10:58:13.420Z,101954.56
2023-03-20T11:00:41.149Z,101945.69
2023-03-20T11:03:22.440Z,101949.22
2023-03-20T11:06:09.295Z,101942.03
2023-03-20T11:08:42.519Z,101944.69
2023-03-20T11:11:09.756Z,101942.03
2023-03-20T11:13:40.125Z,101935.81
2023-03-20T11:16:22.079Z,101927.91
2023-03-20T11:18:51.078Z,101928.63
2023-03-20T11:21:29.186Z,101932.28
2023-03-20T11:23:56.201Z,101928.63
2023-03-20T11:26:39.072Z,101924.09
2023-03-20T11:29:07.934Z,101925.00
2023-03-20T11:31:37.374Z,101913.38
2023-03-20T11:34:06.950Z,101917.91
2023-03-20T11:36:35.526Z,101916.81
2023-03-20T11:39:14.525Z,101908.91
2023-03-20T11:41:50.178Z,101909.75
2023-03-20T11:44:31.732Z,101912.44
2023-03-20T11:47:26.271Z,101919.50
2023-03-20T11:49:59.518Z,101914.13
2023-03-20T11:52:32.929Z,101920.34
2023-03-20T11:55:07.000Z,101923.03
2023-03-20T11:57:41.889Z,101913.28
2023-03-20T12:00:11.439Z,101916.81
2023-03-20T12:02:41.295Z,101918.66
2023-03-20T12:05:29.987Z,101919.72
2023-03-20T12:08:00.967Z,101925.00
2023-03-20T12:10:32.918Z,101913.38
2023-03-20T12:13:02.907Z,101909.84
2023-03-20T12:15:34.246Z,101917.06
2023-03-20T12:18:28.989Z,101923.16
2023-03-20T12:21:09.667Z,101918.75
2023-03-20T12:23:48.162Z,101917.06
2023-03-20T12:27:14.081Z,101916.44
2023-03-20T12:29:50.146Z,101910.84
2023-03-20T12:32:41.609Z,101908.41
2023-03-20T12:35:41.213Z,101909.38
2023-03-20T12:38:29.684Z,101904.03
2023-03-20T12:41:27.479Z,101901.47
2023-03-20T12:44:31.746Z,101902.44
2023-03-20T12:47:19.889Z,101895.28
2023-03-20T12:50:19.358Z,101892.69
2023-03-20T12:52:55.213Z,101880.88
2023-03-20T12:55:31.617Z,101879.19
2023-03-20T12:58:14.658Z,101880.03
2023-03-20T13:01:06.214Z,101877.22
2023-03-20T13:04:09.626Z,101867.59
2023-03-20T13:06:53.341Z,101874.78
2023-03-20T13:09:36.686Z,101865.78
2023-03-20T13:12:15.437Z,101873.09
2023-03-20T13:14:52.735Z,101869.56
2023-03-20T13:17:31.752Z,101858.94
2023-03-20T13:20:04.453Z,101862.50
2023-03-20T13:22:53.835Z,101854.72
2023-03-20T13:25:26.200Z,101859.94
2023-03-20T13:28:20.975Z,101858.25
2023-03-20T13:31:27.087Z,101851.06
2023-03-20T13:34:25.845Z,101856.53
2023-03-20T13:37:23.882Z,101847.53
2023-03-20T13:40:13.908Z,101848.50
2023-03-20T13:43:05.400Z,101848.59
2023-03-20T13:45:38.540Z,101849.47
2023-03-20T13:48:31.095Z,101845.09
2023-03-20T13:50:58.700Z,101845.09
2023-03-20T13:53:33.514Z,101840.72
2023-03-20T13:56:05.436Z,101843.38
2023-03-20T13:58:41.168Z,101843.25
2023-03-20T14:01:19.810Z,101837.88
2023-03-20T14:03:47.333Z,101846.06
2023-03-20T14:06:27.972Z,101845.22
2023-03-20T14:08:54.669Z,101845.22
2023-03-20T14:11:21.242Z,101847.06
2023-03-20T14:13:55.322Z,101848.88
2023-03-20T14:16:22.566Z,101840.84
2023-03-20T14:19:04.586Z,101848.00
2023-03-20T14:21:31.268Z,101845.31
2023-03-20T14:24:03.340Z,101851.66
2023-03-20T14:26:34.592Z,101847.28
2023-03-20T14:29:20.417Z,101843.75
2023-03-20T14:31:52.128Z,101844.59
2023-03-20T14:34:24.657Z,101835.84
2023-03-20T14:37:05.682Z,101843.03
2023-03-20T14:39:43.950Z,101843.16
2023-03-20T14:42:19.722Z,101834.28
2023-03-20T14:45:19.237Z,101837.94
2023-03-20T14:47:54.774Z,101825.38
2023-03-20T14:50:36.719Z,101833.41
2023-03-20T14:53:16.181Z,101837.06
2023-03-20T14:55:57.979Z,101838.03
2023-03-20T14:58:33.522Z,101837.19
2023-03-20T15:01:06.356Z,101832.69
2023-03-20T15:03:33.696Z,101827.31
2023-03-20T15:06:05.261Z,101828.31
2023-03-20T15:08:36.049Z,101817.59
2023-03-20T15:11:08.782Z,101819.41
2023-03-20T15:13:37.650Z,101813.22
2023-03-20T15:16:13.501Z,101810.53
2023-03-20T15:18:46.457Z,101808.81
2023-03-20T15:21:19.968Z,101811.50
2023-03-20T15:23:48.094Z,101807.13
2023-03-20T15:26:18.864Z,101808.94
2023-03-20T15:28:47.011Z,101801.75
2023-03-20T15:31:30.256Z,101798.22
2023-03-20T15:33:57.800Z,101795.41
2023-03-20T15:36:28.350Z,101798.97
2023-03-20T15:39:14.362Z,101789.81
2023-03-20T15:41:46.317Z,101795.53
2023-03-20T15:44:15.910Z,101789.28
2023-03-20T15:47:01.372Z,101789.88
2023-03-20T15:49:30.555Z,101790.44
2023-03-20T15:52:00.819Z,101787.22
2023-03-20T15:54:27.729Z,101785.53
2023-03-20T15:56:58.172Z,101785.69
2023-03-20T15:59:29.275Z,101785.53
2023-03-20T16:01:58.205Z,101782.81
2023-03-20T16:04:26.154Z,101786.31
2023-03-20T16:07:00.498Z,101783.69
2023-03-20T16:09:28.319Z,101789.13
2023-03-20T16:12:00.142Z,101788.44
2023-03-20T16:14:31.592Z,101787.91
2023-03-20T16:17:00.355Z,101784.53
2023-03-20T16:19:29.060Z,101783.97
2023-03-20T16:22:03.362Z,101778.84
2023-03-20T16:24:36.591Z,101770.31
2023-03-20T16:27:08.405Z,101787.00
2023-03-20T16:29:37.018Z,101782.31
2023-03-20T16:32:38.617Z,101769.53
2023-03-20T16:35:20.057Z,101771.03
2023-03-20T16:37:55.479Z,101776.09
2023-03-20T16:40:34.119Z,101776.06
2023-03-20T16:43:18.660Z,101769.59
2023-03-20T16:45:49.175Z,101773.78
2023-03-20T16:48:15.626Z,101768.34
2023-03-20T16:50:45.302Z,101776.34
2023-03-20T16:53:15.820Z,101771.25
2023-03-20T16:55:45.721Z,101772.63
2023-03-20T16:58:21.801Z,101769.78
2023-03-20T17:00:52.887Z,101768.94
2023-03-20T17:03:26.011Z,101766.94
2023-03-20T17:05:59.575Z,101764.38
2023-03-20T17:08:41.394Z,101764.69
2023-03-20T17:11:14.510Z,101769.22
2023-03-20T17:13:41.793Z,101769.81
2023-03-20T17:16:17.972Z,101765.31
2023-03-20T17:18:46.445Z,101760.72
2023-03-20T17:21:13.885Z,101767.56
2023-03-20T17:23:40.910Z,101773.56
2023-03-20T17:26:12.798Z,101783.41
2023-03-20T17:28:39.806Z,101778.59
2023-03-20T17:31:06.685Z,101781.03
2023-03-20T17:33:33.853Z,101790.72
2023-03-20T17:36:00.916Z,101789.31
2023-03-20T17:38:27.766Z,101790.47
2023-03-20T17:40:54.353Z,101799.38
2023-03-20T17:43:21.099Z,101795.69
2023-03-20T17:45:47.909Z,101786.31
2023-03-20T17:48:17.892Z,101790.41
2023-03-20T17:50:45.859Z,101792.53
2023-03-20T17:53:15.769Z,101788.38
2023-03-20T17:55:42.381Z,101790.59
2023-03-20T17:58:17.139Z,101795.56
2023-03-20T18:00:44.684Z,101790.41
2023-03-20T18:03:12.044Z,101795.34
2023-03-20T18:05:39.655Z,101793.75
2023-03-20T18:08:14.127Z,101794.56
2023-03-20T18:10:41.186Z,101789.13
2023-03-20T18:13:07.871Z,101793.44
2023-03-20T18:15:34.538Z,101790.53
2023-03-20T18:18:01.221Z,101788.75
2023-03-20T18:20:33.431Z,101789.81
2023-03-20T18:23:00.219Z,101798.97
2023-03-20T18:25:27.402Z,101791.59
2023-03-20T18:27:55.978Z,101786.19
2023-03-20T18:30:26.043Z,101789.88
2023-03-20T18:32:52.760Z,101801.00
2023-03-20T18:35:19.283Z,101804.16
2023-03-20T18:37:46.030Z,101798.53
2023-03-20T18:40:23.262Z,101809.94
2023-03-20T18:42:49.805Z,101798.75
2023-03-20T18:45:16.949Z,101798.69
2023-03-20T18:47:43.512Z,101797.28
2023-03-20T18:50:37.511Z,101801.59
2023-03-20T18:53:06.502Z,101794.50
2023-03-20T18:55:34.076Z,101804.03
2023-03-20T18:58:03.775Z,101810.56
2023-03-20T19:00:40.575Z,101800.53
2023-03-20T19:03:08.296Z,101791.91
2023-03-20T19:05:34.881Z,101787.81
2023-03-20T19:08:03.195Z,101792.97
2023-03-20T19:10:38.826Z,101786.94
2023-03-20T19:13:07.469Z,101787.13
2023-03-20T19:15:36.369Z,101787.03
2023-03-20T19:18:09.224Z,101778.09
2023-03-20T19:20:42.147Z,101784.91
2023-03-20T19:23:11.133Z,101785.22
2023-03-20T19:25:38.517Z,101780.97
2023-03-20T19:28:05.528Z,101780.59
2023-03-20T19:30:38.219Z,101782.16
2023-03-20T19:33:06.912Z,101778.16
2023-03-20T19:38:22.130Z,101770.00
2023-03-20T19:40:53.099Z,101777.25
2023-03-20T19:43:23.080Z,101778.97
2023-03-20T19:45:59.304Z,101773.47
2023-03-20T19:48:46.004Z,101772.47
2023-03-20T19:51:18.228Z,101771.22
2023-03-20T19:53:46.009Z,101763.59
2023-03-20T19:56:14.333Z,101766.84
2023-03-20T19:58:41.100Z,101758.47
2023-03-20T20:01:15.087Z,101765.44
2023-03-20T20:03:42.258Z,101762.28
2023-03-20T20:06:08.833Z,101773.44
2023-03-20T20:08:46.909Z,101768.50
2023-03-20T20:11:15.504Z,101760.84
2023-03-20T20:14:04.086Z,101772.03
2023-03-20T20:16:29.636Z,101763.69
2023-03-20T20:18:56.209Z,101762.97
2023-03-20T20:24:09.294Z,101762.94
2023-03-20T20:26:41.245Z,101756.16
2023-03-20T20:29:14.382Z,101762.78
2023-03-20T20:31:40.990Z,101758.69
2023-03-20T20:35:07.372Z,101750.88
2023-03-20T20:39:41.010Z,101757.94
2023-03-20T20:42:07.617Z,101755.69
2023-03-20T20:44:34.654Z,101756.78
2023-03-20T20:47:01.205Z,101749.03
2023-03-20T20:49:27.783Z,101758.03
2023-03-20T20:51:54.339Z,101748.44
2023-03-20T20:54:21.298Z,101754.94
2023-03-20T20:56:47.847Z,101755.19
2023-03-20T20:59:14.423Z,101750.13
2023-03-20T21:01:41.144Z,101750.13
2023-03-20T21:04:07.962Z,101750.38
2023-03-20T21:07:05.757Z,101752.31
2023-03-20T21:09:21.030Z,101739.03
2023-03-20T21:11:47.661Z,101748.19
2023-03-20T21:14:14.498Z,101747.34
2023-03-20T21:16:40.996Z,101747.63
2023-03-20T21:19:07.695Z,101748.59
2023-03-20T21:21:35.661Z,101750.59
2023-03-20T21:24:02.661Z,101752.44
2023-03-20T21:26:29.344Z,101763.28
2023-03-20T21:28:55.914Z,101756.22
2023-03-20T21:31:30.878Z,101759.91
2023-03-20T21:33:57.877Z,101753.69
2023-03-20T21:36:24.873Z,101752.94
2023-03-20T21:39:07.786Z,101756.63
2023-03-20T21:41:37.626Z,101752.25
2023-03-20T21:44:05.554Z,101757.75
2023-03-20T22:03:33.714Z,101749.50
2023-03-20T22:15:11.925Z,101745.53
2023-03-20T22:20:44.734Z,101742.97
2023-03-20T22:26:18.282Z,101741.53
2023-03-20T22:34:44.974Z,101744.63
2023-03-20T22:37:42.570Z,101734.88
2023-03-20T22:45:16.250Z,101740.50
2023-03-20T22:47:42.940Z,101730.75
2023-03-20T22:50:10.115Z,101731.75
2023-03-20T22:52:49.140Z,101731.03
2023-03-20T22:55:17.016Z,101724.81
2023-03-20T22:57:52.837Z,101724.09
2023-03-20T23:00:22.801Z,101724.09
2023-03-20T23:02:52.891Z,101727.75
2023-03-20T23:05:19.548Z,101726.91
2023-03-20T23:07:46.166Z,101730.56
2023-03-20T23:10:15.592Z,101725.34
2023-03-20T23:12:44.066Z,101726.19
2023-03-20T23:15:11.178Z,101726.31
2023-03-20T23:17:37.770Z,101721.94
2023-03-20T23:20:12.627Z,101729.13
2023-03-20T23:22:39.810Z,101726.59
2023-03-20T23:25:16.446Z,101722.19
2023-03-20T23:27:47.420Z,101731.22
2023-03-20T23:30:14.782Z,101722.47
2023-03-20T23:32:41.538Z,101726.97
2023-03-20T23:35:08.987Z,101725.28
2023-03-20T23:37:36.260Z,101713.69
2023-03-20T23:40:04.529Z,101721.06
2023-03-20T23:42:31.380Z,101715.53
2023-03-20T23:45:04.334Z,101717.50
2023-03-20T23:50:30.003Z,101715.78
2023-03-20T23:53:13.129Z,101718.63
2023-03-20T23:55:46.227Z,101712.41
2023-03-20T23:58:13.161Z,101707.03
